Time;durP1;ratioP1;P1;durP2;ratioP2;P2;SDS_P1;SDS_P2;PMS_P1;PMS_P2;Temp;Humidity;BMP_temperature;BMP_pressure;BME280_temperature;BME280_humidity;BME280_pressure;Samples;Min_cycle;Max_cycle;Signal;HPM_P1;HPM_P2
2021/01/24 00:00:56;;;;;;;4.20;3.60;;;3.40;99.90;;;;;;5068885;28;20530;-73
2021/01/24 00:03:23;;;;;;;4.73;3.67;;;3.30;99.90;;;;;;5070347;28;20499;-72
2021/01/24 00:05:49;;;;;;;6.03;3.73;;;3.20;99.90;;;;;;5070336;28;20475;-72
2021/01/24 00:08:16;;;;;;;5.20;3.47;;;3.20;99.90;;;;;;5069973;28;20482;-72
2021/01/24 00:10:42;;;;;;;4.70;4.00;;;3.10;99.90;;;;;;5075709;28;20552;-73
2021/01/24 00:13:09;;;;;;;4.60;4.10;;;3.10;99.90;;;;;;5089695;28;20595;-73
2021/01/24 00:15:36;;;;;;;4.83;4.00;;;3.10;99.90;;;;;;5089854;28;20556;-73
2021/01/24 00:18:03;;;;;;;5.27;4.37;;;3.10;99.90;;;;;;5089598;28;20541;-73
2021/01/24 00:20:29;;;;;;;4.20;3.80;;;3.10;99.90;;;;;;5088064;28;20456;-72
2021/01/24 00:22:56;;;;;;;5.77;4.40;;;3.10;99.90;;;;;;5089276;28;20557;-73
2021/01/24 00:25:22;;;;;;;4.53;3.87;;;3.20;99.90;;;;;;5089000;28;20542;-73
2021/01/24 00:27:49;;;;;;;6.93;4.13;;;3.20;99.90;;;;;;5090315;28;21020;-73
2021/01/24 00:30:17;;;;;;;5.30;4.60;;;3.20;99.90;;;;;;5091270;28;20493;-73
2021/01/24 00:32:44;;;;;;;5.73;4.10;;;3.20;99.90;;;;;;5092082;28;20525;-73
2021/01/24 00:35:11;;;;;;;4.53;4.03;;;3.20;99.90;;;;;;5092583;28;20450;-73
2021/01/24 00:37:39;;;;;;;5.73;4.60;;;3.20;99.90;;;;;;5075752;28;20451;-73
2021/01/24 00:40:07;;;;;;;5.23;4.73;;;3.20;99.90;;;;;;5071810;28;20447;-73
2021/01/24 00:42:33;;;;;;;5.23;4.67;;;3.20;99.90;;;;;;5072747;28;20478;-73
2021/01/24 00:45:00;;;;;;;5.50;4.87;;;3.20;99.90;;;;;;5072626;28;20530;-72
2021/01/24 00:47:27;;;;;;;5.37;4.60;;;3.10;99.90;;;;;;5073484;28;20537;-72
2021/01/24 00:49:54;;;;;;;5.13;3.93;;;3.20;99.90;;;;;;5073353;28;20547;-72
2021/01/24 00:52:20;;;;;;;6.00;4.47;;;3.20;99.90;;;;;;5072998;28;20473;-72
2021/01/24 00:54:46;;;;;;;5.50;4.47;;;3.20;99.90;;;;;;5074572;28;20505;-73
2021/01/24 00:57:13;;;;;;;5.10;4.40;;;3.20;99.90;;;;;;5072191;28;20449;-72
2021/01/24 00:59:39;;;;;;;5.30;4.33;;;3.30;99.90;;;;;;5071436;28;20547;-72
2021/01/24 01:02:06;;;;;;;5.07;4.00;;;3.30;99.90;;;;;;5072223;28;21004;-72
2021/01/24 01:04:32;;;;;;;5.20;4.03;;;3.20;99.90;;;;;;5072054;28;20947;-72
2021/01/24 01:06:59;;;;;;;6.37;4.60;;;3.20;99.90;;;;;;5080136;28;20468;-72
2021/01/24 01:09:25;;;;;;;4.70;4.03;;;3.10;99.90;;;;;;5090548;28;20538;-72
2021/01/24 01:11:52;;;;;;;4.57;4.17;;;3.10;99.90;;;;;;5091721;28;20529;-72
2021/01/24 01:14:18;;;;;;;5.10;4.37;;;3.10;99.90;;;;;;5090698;28;20482;-72
2021/01/24 01:16:45;;;;;;;4.30;3.70;;;3.20;99.90;;;;;;5090928;28;21290;-72
2021/01/24 01:19:11;;;;;;;8.03;4.80;;;3.20;99.90;;;;;;5090693;28;20450;-72
2021/01/24 01:21:38;;;;;;;5.00;3.90;;;3.20;99.90;;;;;;5091106;28;20906;-72
2021/01/24 01:24:06;;;;;;;4.03;3.30;;;3.20;99.90;;;;;;5091196;28;20887;-72
2021/01/24 01:26:32;;;;;;;4.70;3.67;;;3.20;99.90;;;;;;5091035;28;20533;-72
2021/01/24 01:28:59;;;;;;;4.13;3.30;;;3.10;99.90;;;;;;5091200;28;20525;-72
2021/01/24 01:31:25;;;;;;;3.90;3.50;;;3.10;99.90;;;;;;5070560;28;20565;-72
2021/01/24 01:33:52;;;;;;;3.73;3.00;;;3.10;99.90;;;;;;5070954;28;20490;-72
2021/01/24 01:36:18;;;;;;;4.87;3.80;;;3.10;99.90;;;;;;5070956;28;20530;-72
2021/01/24 01:38:44;;;;;;;4.10;3.07;;;3.10;99.90;;;;;;5069458;28;20447;-72
2021/01/24 01:41:12;;;;;;;4.07;2.90;;;3.10;99.90;;;;;;5069084;28;20838;-72
2021/01/24 01:43:38;;;;;;;3.33;2.60;;;3.10;99.90;;;;;;5070410;28;20473;-72
2021/01/24 01:46:05;;;;;;;3.47;2.53;;;3.10;99.90;;;;;;5073156;28;20465;-74
2021/01/24 01:48:32;;;;;;;2.30;2.00;;;3.10;99.90;;;;;;5080582;28;20546;-76
2021/01/24 01:50:59;;;;;;;2.67;2.30;;;3.00;99.90;;;;;;5071052;28;20560;-73
2021/01/24 01:53:26;;;;;;;2.77;2.13;;;3.00;99.90;;;;;;5071048;28;20495;-75
2021/01/24 01:55:52;;;;;;;2.80;2.20;;;3.00;99.90;;;;;;5071374;28;20541;-75
2021/01/24 01:58:19;;;;;;;2.70;2.30;;;3.00;99.90;;;;;;5075405;28;20525;-75
2021/01/24 02:00:49;;;;;;;4.37;2.33;;;3.00;99.90;;;;;;5089897;28;20541;-74
2021/01/24 02:03:32;;;;;;;3.20;2.43;;;3.10;99.90;;;;;;5090802;28;20483;-75
2021/01/24 02:06:09;;;;;;;7.20;2.33;;;3.10;99.90;;;;;;5088161;28;21024;-75
2021/01/24 02:08:42;;;;;;;3.20;2.73;;;3.20;99.90;;;;;;5071352;28;20542;-74
2021/01/24 02:11:15;;;;;;;3.17;2.33;;;3.20;99.90;;;;;;5074401;28;20546;-74
2021/01/24 02:13:54;;;;;;;3.27;2.97;;;3.30;99.90;;;;;;5080854;28;20478;-75
2021/01/24 02:16:20;;;;;;;4.23;3.00;;;3.30;99.90;;;;;;5070989;28;20481;-75
2021/01/24 02:18:50;;;;;;;3.67;2.77;;;3.40;99.90;;;;;;5070835;28;20453;-74
2021/01/24 02:21:28;;;;;;;4.60;3.10;;;3.40;99.90;;;;;;5068517;28;20525;-74
2021/01/24 02:23:58;;;;;;;2.57;2.27;;;3.40;99.90;;;;;;5070526;28;20459;-74
2021/01/24 02:26:32;;;;;;;3.30;2.57;;;3.50;99.90;;;;;;5071111;28;20508;-74
2021/01/24 02:29:14;;;;;;;2.40;1.43;;;3.50;99.90;;;;;;5070811;28;20451;-74
2021/01/24 02:31:43;;;;;;;2.00;1.10;;;3.50;99.90;;;;;;5071351;28;20533;-74
2021/01/24 02:34:11;;;;;;;1.70;1.00;;;3.40;99.90;;;;;;5070778;28;20581;-74
2021/01/24 02:36:38;;;;;;;1.60;1.07;;;3.40;99.90;;;;;;5077503;28;20505;-74
2021/01/24 02:39:06;;;;;;;1.20;0.60;;;3.30;99.90;;;;;;5070294;28;20524;-73
2021/01/24 02:41:33;;;;;;;1.30;0.70;;;3.20;99.90;;;;;;5084429;28;20450;-74
2021/01/24 02:44:01;;;;;;;1.20;0.60;;;3.10;99.90;;;;;;5076452;28;20463;-74
2021/01/24 02:46:30;;;;;;;1.20;0.53;;;3.00;99.90;;;;;;5070256;28;20479;-74
2021/01/24 02:48:58;;;;;;;1.20;0.50;;;3.00;99.90;;;;;;5070425;28;20530;-74
2021/01/24 02:51:25;;;;;;;1.40;0.60;;;2.90;99.90;;;;;;5069331;28;20447;-73
2021/01/24 02:53:53;;;;;;;1.23;0.53;;;2.90;99.90;;;;;;5070272;28;20490;-74
2021/01/24 02:56:21;;;;;;;1.33;0.60;;;2.80;99.90;;;;;;5070467;28;20504;-73
2021/01/24 02:58:49;;;;;;;1.30;0.70;;;2.80;99.90;;;;;;5070500;28;20481;-73
2021/01/24 03:01:15;;;;;;;2.03;0.97;;;2.70;99.90;;;;;;5069663;28;20538;-74
2021/01/24 03:03:42;;;;;;;1.40;0.70;;;2.70;99.90;;;;;;5070309;28;20550;-74
2021/01/24 03:06:10;;;;;;;1.60;0.90;;;2.60;99.90;;;;;;5085792;28;20450;-73
2021/01/24 03:08:37;;;;;;;1.50;0.90;;;2.60;99.90;;;;;;5069824;28;20451;-73
2021/01/24 03:11:04;;;;;;;2.20;1.20;;;2.60;99.90;;;;;;5069242;28;20450;-74
2021/01/24 03:13:37;;;;;;;2.47;1.43;;;2.50;99.90;;;;;;5069598;28;20487;-74
2021/01/24 03:16:04;;;;;;;1.70;1.00;;;2.50;99.90;;;;;;5069481;28;20454;-74
2021/01/24 03:18:36;;;;;;;2.30;1.53;;;2.50;99.90;;;;;;5070305;28;20443;-74
2021/01/24 03:21:04;;;;;;;2.47;1.30;;;2.40;99.90;;;;;;5069427;28;21016;-74
2021/01/24 03:23:33;;;;;;;1.77;1.30;;;2.60;99.90;;;;;;5068592;28;20468;-73
2021/01/24 03:26:00;;;;;;;2.00;1.50;;;2.60;99.90;;;;;;5076313;28;20452;-74
2021/01/24 03:28:26;;;;;;;2.70;1.97;;;2.70;99.90;;;;;;5082795;28;20918;-74
2021/01/24 03:30:53;;;;;;;3.70;2.40;;;2.70;99.90;;;;;;5069678;28;20886;-74
2021/01/24 03:33:20;;;;;;;4.50;2.33;;;2.70;99.90;;;;;;5083198;28;20515;-74
2021/01/24 03:35:46;;;;;;;3.63;2.70;;;2.70;99.90;;;;;;5069542;28;20531;-74
2021/01/24 03:38:12;;;;;;;3.47;2.90;;;2.70;99.90;;;;;;5069445;28;20525;-74
2021/01/24 03:40:39;;;;;;;3.50;2.53;;;2.70;99.90;;;;;;5068971;28;20491;-74
2021/01/24 03:43:06;;;;;;;4.77;2.90;;;2.70;99.90;;;;;;5069232;28;20471;-74
2021/01/24 03:45:32;;;;;;;4.37;3.23;;;2.70;99.90;;;;;;5069050;28;20538;-74
2021/01/24 03:47:59;;;;;;;4.60;2.97;;;2.60;99.90;;;;;;5068442;28;20453;-74
2021/01/24 03:50:25;;;;;;;4.23;3.20;;;2.50;99.90;;;;;;5068463;28;20459;-74
2021/01/24 03:52:51;;;;;;;4.03;2.70;;;2.50;99.90;;;;;;5069091;28;20553;-74
2021/01/24 03:55:18;;;;;;;3.50;2.67;;;2.40;99.90;;;;;;5069046;28;20482;-74
2021/01/24 03:57:45;;;;;;;5.73;4.07;;;2.40;99.90;;;;;;5069620;28;20443;-74
2021/01/24 04:00:14;;;;;;;5.37;3.43;;;2.40;99.90;;;;;;5070827;28;20454;-74
2021/01/24 04:02:40;;;;;;;5.20;2.97;;;2.50;99.90;;;;;;5084562;28;20518;-74
2021/01/24 04:05:09;;;;;;;5.30;3.33;;;2.50;99.90;;;;;;5089192;28;20947;-74
2021/01/24 04:07:35;;;;;;;4.50;2.90;;;2.50;99.90;;;;;;5085303;28;20475;-74
2021/01/24 04:10:02;;;;;;;3.70;3.00;;;2.50;99.90;;;;;;5092184;28;20449;-75
2021/01/24 04:12:28;;;;;;;5.32;3.22;;;2.50;99.90;;;;;;5092861;28;20432;-74
2021/01/24 04:14:56;;;;;;;3.73;2.70;;;2.50;99.90;;;;;;5092640;28;20307;-74
2021/01/24 04:17:22;;;;;;;4.90;3.03;;;2.50;99.90;;;;;;5092790;28;20582;-74
2021/01/24 04:19:48;;;;;;;5.10;3.10;;;2.40;99.90;;;;;;5092132;28;21070;-74
2021/01/24 04:22:15;;;;;;;3.97;2.83;;;2.30;99.90;;;;;;5092410;28;20545;-74
2021/01/24 04:24:41;;;;;;;4.43;2.93;;;2.30;99.90;;;;;;5077070;28;20910;-74
2021/01/24 04:27:07;;;;;;;3.20;2.27;;;2.20;99.90;;;;;;5081676;28;20859;-74
2021/01/24 04:29:34;;;;;;;3.77;2.30;;;2.20;99.90;;;;;;5092227;28;20442;-74
2021/01/24 04:32:01;;;;;;;3.47;3.00;;;2.10;99.90;;;;;;5092563;28;20546;-74
2021/01/24 04:34:27;;;;;;;5.27;2.87;;;2.10;99.90;;;;;;5092427;28;20481;-74
2021/01/24 04:36:54;;;;;;;4.60;2.77;;;2.00;99.90;;;;;;5083209;28;20474;-74
2021/01/24 04:39:20;;;;;;;3.67;2.50;;;2.00;99.90;;;;;;5077564;28;20542;-74
2021/01/24 04:41:48;;;;;;;5.37;3.73;;;2.00;99.90;;;;;;5086918;28;20470;-74
2021/01/24 04:44:15;;;;;;;4.13;3.13;;;2.00;99.90;;;;;;5092468;28;20840;-74
2021/01/24 04:46:43;;;;;;;3.90;2.93;;;2.00;99.90;;;;;;5092139;28;20446;-74
2021/01/24 04:49:11;;;;;;;5.27;2.97;;;2.00;99.90;;;;;;5091718;28;20540;-74
2021/01/24 04:51:39;;;;;;;4.80;2.80;;;2.00;99.90;;;;;;5078638;28;20534;-74
2021/01/24 04:54:06;;;;;;;5.30;2.80;;;2.00;99.90;;;;;;5072552;28;21019;-74
2021/01/24 04:56:36;;;;;;;4.50;2.87;;;2.10;99.90;;;;;;5085562;28;20452;-74
2021/01/24 04:59:03;;;;;;;5.10;2.50;;;2.10;99.90;;;;;;5072439;28;20898;-74
2021/01/24 05:01:31;;;;;;;4.87;3.30;;;2.10;99.90;;;;;;5084683;28;20533;-74
2021/01/24 05:03:59;;;;;;;4.00;2.63;;;2.10;99.90;;;;;;5090795;28;20591;-74
2021/01/24 05:06:26;;;;;;;3.70;2.40;;;2.10;99.90;;;;;;5085249;28;20447;-74
2021/01/24 05:08:53;;;;;;;3.23;2.30;;;2.10;99.90;;;;;;5072257;28;20956;-74
2021/01/24 05:11:21;;;;;;;3.60;2.20;;;2.20;99.90;;;;;;5071866;28;20455;-74
2021/01/24 05:13:47;;;;;;;2.47;2.23;;;2.20;99.90;;;;;;5084300;28;20977;-74
2021/01/24 05:16:13;;;;;;;3.03;2.20;;;2.30;99.90;;;;;;5085097;28;20957;-74
2021/01/24 05:18:41;;;;;;;2.97;1.87;;;2.20;99.90;;;;;;5072251;28;20480;-74
2021/01/24 05:21:09;;;;;;;2.60;1.67;;;2.20;99.90;;;;;;5090705;28;20976;-74
2021/01/24 05:23:38;;;;;;;4.90;2.00;;;2.20;99.90;;;;;;5091815;28;20470;-74
2021/01/24 05:26:08;;;;;;;2.03;1.60;;;2.20;99.90;;;;;;5091408;28;20523;-74
2021/01/24 05:28:45;;;;;;;3.00;2.07;;;2.10;99.90;;;;;;5078755;28;21055;-74
2021/01/24 05:31:11;;;;;;;3.60;2.40;;;2.20;99.90;;;;;;5071251;28;20560;-74
2021/01/24 05:33:43;;;;;;;4.40;2.33;;;2.20;99.90;;;;;;5085145;28;20488;-74
2021/01/24 05:36:09;;;;;;;3.47;2.40;;;2.20;99.90;;;;;;5078049;28;20453;-73
2021/01/24 05:38:36;;;;;;;3.43;2.57;;;2.20;99.90;;;;;;5091145;28;20450;-73
2021/01/24 05:41:05;;;;;;;4.97;2.47;;;2.20;99.90;;;;;;5090732;28;20442;-73
2021/01/24 05:43:35;;;;;;;3.40;2.47;;;2.20;99.90;;;;;;5090738;28;20577;-73
2021/01/24 05:46:02;;;;;;;4.30;2.83;;;2.30;99.90;;;;;;5071519;28;20445;-74
2021/01/24 05:48:29;;;;;;;3.90;2.67;;;2.30;99.90;;;;;;5071823;28;20489;-73
2021/01/24 05:50:56;;;;;;;3.40;2.30;;;2.20;99.90;;;;;;5071042;28;20521;-73
2021/01/24 05:53:24;;;;;;;5.13;3.20;;;2.10;99.90;;;;;;5071616;28;21207;-73
2021/01/24 05:55:51;;;;;;;3.50;2.53;;;2.10;99.90;;;;;;5071477;28;20459;-73
2021/01/24 05:58:19;;;;;;;8.67;2.83;;;2.00;99.90;;;;;;5071252;28;20443;-73
2021/01/24 06:00:46;;;;;;;3.60;2.50;;;1.90;99.90;;;;;;5070800;28;20554;-73
2021/01/24 06:03:14;;;;;;;4.03;2.90;;;1.80;99.90;;;;;;5072038;28;20549;-73
2021/01/24 06:05:41;;;;;;;3.20;2.70;;;1.70;99.90;;;;;;5071812;28;20459;-73
2021/01/24 06:08:08;;;;;;;4.73;2.80;;;1.70;99.90;;;;;;5091793;28;20537;-73
2021/01/24 06:10:35;;;;;;;5.73;3.40;;;1.60;99.90;;;;;;5092347;28;20552;-73
2021/01/24 06:13:04;;;;;;;3.80;2.70;;;1.60;99.90;;;;;;5090369;28;20468;-73
2021/01/24 06:15:36;;;;;;;4.57;3.10;;;1.70;99.90;;;;;;5090155;28;20529;-73
2021/01/24 06:18:11;;;;;;;3.93;2.90;;;1.70;99.90;;;;;;5077529;28;20451;-73
2021/01/24 06:20:40;;;;;;;4.97;3.50;;;1.60;99.90;;;;;;5070344;28;20496;-73
2021/01/24 06:23:13;;;;;;;3.40;3.10;;;1.60;99.90;;;;;;5071691;28;20473;-75
2021/01/24 06:25:44;;;;;;;7.13;3.93;;;1.60;99.90;;;;;;5088960;28;20446;-74
2021/01/24 06:28:20;;;;;;;5.70;3.40;;;1.60;99.90;;;;;;5090341;28;20529;-74
2021/01/24 06:30:48;;;;;;;5.00;3.50;;;1.60;99.90;;;;;;5089475;28;20524;-74
2021/01/24 06:33:15;;;;;;;4.30;3.30;;;1.50;99.90;;;;;;5080594;28;21102;-74
2021/01/24 06:35:47;;;;;;;4.03;3.03;;;1.50;99.90;;;;;;5070342;28;20497;-74
2021/01/24 06:38:30;;;;;;;5.20;3.67;;;1.40;99.90;;;;;;5086876;28;20485;-74
2021/01/24 06:40:57;;;;;;;6.10;3.67;;;1.30;99.90;;;;;;5089582;28;20446;-74
2021/01/24 06:43:37;;;;;;;6.00;3.60;;;1.30;99.90;;;;;;5089999;28;20842;-74
2021/01/24 06:46:04;;;;;;;4.70;3.30;;;1.20;99.90;;;;;;5070519;28;20443;-74
2021/01/24 06:48:41;;;;;;;4.27;3.80;;;1.20;99.90;;;;;;5070106;28;20482;-74
2021/01/24 06:51:32;;;;;;;6.20;4.13;;;1.20;99.90;;;;;;5069585;28;20923;-74
2021/01/24 06:53:59;;;;;;;4.53;3.60;;;1.20;99.90;;;;;;5060993;28;20498;-74
2021/01/24 06:56:39;;;;;;;7.43;3.87;;;1.10;99.90;;;;;;5069918;28;20451;-74
2021/01/24 06:59:08;;;;;;;4.57;3.33;;;1.10;99.90;;;;;;5069614;28;21246;-73
2021/01/24 07:01:35;;;;;;;4.30;3.30;;;1.10;99.90;;;;;;5069703;28;20447;-74
2021/01/24 07:04:35;;;;;;;4.50;2.97;;;1.10;99.90;;;;;;5069110;28;20549;-74
2021/01/24 07:07:30;;;;;;;5.50;3.00;;;1.10;99.90;;;;;;5072532;28;20477;-74
2021/01/24 07:09:56;;;;;;;3.40;3.10;;;1.20;99.90;;;;;;5082366;28;20525;-74
2021/01/24 07:12:40;;;;;;;4.03;2.92;;;1.30;99.90;;;;;;5089424;28;21017;-74
2021/01/24 07:15:09;;;;;;;5.60;3.13;;;1.30;99.90;;;;;;5089153;28;20270;-74
2021/01/24 07:17:36;;;;;;;5.93;2.40;;;1.40;99.90;;;;;;5089349;28;20958;-74
2021/01/24 07:20:04;;;;;;;3.80;2.73;;;1.40;99.90;;;;;;5088664;28;20442;-74
2021/01/24 07:22:31;;;;;;;3.83;2.20;;;1.50;99.90;;;;;;5089255;28;20466;-74
2021/01/24 07:24:58;;;;;;;4.03;1.87;;;1.60;99.90;;;;;;5088891;28;20442;-74
2021/01/24 07:27:27;;;;;;;3.20;1.97;;;1.70;99.90;;;;;;5089395;28;20906;-74
2021/01/24 07:29:54;;;;;;;4.17;2.33;;;1.70;99.90;;;;;;5088332;28;20506;-74
2021/01/24 07:32:23;;;;;;;3.83;2.73;;;1.70;99.90;;;;;;5089135;28;20911;-74
2021/01/24 07:34:51;;;;;;;4.00;2.33;;;1.70;99.90;;;;;;5089220;28;21002;-74
2021/01/24 07:37:18;;;;;;;5.67;2.63;;;1.70;99.90;;;;;;5075533;28;20450;-74
2021/01/24 07:39:47;;;;;;;3.17;1.90;;;1.70;99.90;;;;;;5076954;28;20475;-74
2021/01/24 07:42:14;;;;;;;2.30;1.70;;;1.70;99.90;;;;;;5087883;28;20450;-74
2021/01/24 07:44:41;;;;;;;3.80;2.17;;;1.70;99.90;;;;;;5072638;28;20900;-74
2021/01/24 07:47:09;;;;;;;3.80;1.93;;;1.70;99.90;;;;;;5086304;28;20489;-74
2021/01/24 07:49:53;;;;;;;3.73;2.73;;;1.80;99.90;;;;;;5073285;28;20940;-74
2021/01/24 07:52:20;;;;;;;2.93;2.03;;;1.80;99.90;;;;;;5070162;28;20449;-74
2021/01/24 07:54:47;;;;;;;6.73;2.33;;;1.90;99.90;;;;;;5069746;28;20479;-74
2021/01/24 07:57:13;;;;;;;2.70;2.00;;;1.90;99.90;;;;;;5069666;28;20542;-74
2021/01/24 07:59:41;;;;;;;3.13;2.30;;;2.00;99.90;;;;;;5069474;28;20503;-74
2021/01/24 08:02:08;;;;;;;3.17;2.43;;;2.10;99.90;;;;;;5069466;28;20530;-74
2021/01/24 08:04:36;;;;;;;3.00;2.27;;;2.30;99.90;;;;;;5069002;28;21068;-74
2021/01/24 08:07:06;;;;;;;4.03;2.17;;;2.30;99.90;;;;;;5078412;28;20462;-74
2021/01/24 08:09:33;;;;;;;2.67;1.90;;;2.40;99.90;;;;;;5088246;28;20835;-74
2021/01/24 08:12:00;;;;;;;5.17;2.97;;;2.40;99.90;;;;;;5089220;28;20533;-74
2021/01/24 08:14:26;;;;;;;3.70;2.40;;;2.40;99.90;;;;;;5086677;28;20485;-74
2021/01/24 08:16:53;;;;;;;2.60;1.83;;;2.40;99.90;;;;;;5069233;28;21087;-74
2021/01/24 08:19:24;;;;;;;6.30;2.43;;;2.40;99.90;;;;;;5068772;28;20545;-74
2021/01/24 08:21:51;;;;;;;3.63;2.43;;;2.30;99.90;;;;;;5069360;28;20465;-74
2021/01/24 08:24:19;;;;;;;2.27;1.80;;;2.20;99.90;;;;;;5069100;28;20477;-74
2021/01/24 08:26:46;;;;;;;4.10;1.93;;;2.20;99.90;;;;;;5069487;28;20453;-74
2021/01/24 08:29:15;;;;;;;3.10;2.30;;;2.20;99.90;;;;;;5068862;28;20453;-74
2021/01/24 08:31:41;;;;;;;5.57;2.50;;;2.20;99.90;;;;;;5069309;28;20447;-74
2021/01/24 08:34:09;;;;;;;2.40;1.63;;;2.20;99.90;;;;;;5068478;28;21042;-74
2021/01/24 08:36:36;;;;;;;2.23;1.90;;;2.30;99.90;;;;;;5069504;28;20463;-74
2021/01/24 08:39:04;;;;;;;3.20;2.03;;;2.50;99.90;;;;;;5088328;28;20450;-74
2021/01/24 08:41:34;;;;;;;4.67;2.70;;;2.80;99.90;;;;;;5088131;28;21024;-75
2021/01/24 08:44:10;;;;;;;3.87;2.17;;;3.20;99.90;;;;;;5088389;28;20900;-75
2021/01/24 08:46:40;;;;;;;2.90;1.90;;;3.60;99.90;;;;;;5087590;28;20507;-74
2021/01/24 08:49:09;;;;;;;3.17;2.57;;;3.70;99.90;;;;;;5080141;28;20439;-74
2021/01/24 08:51:53;;;;;;;2.93;2.10;;;3.60;99.90;;;;;;5072678;28;20455;-75
2021/01/24 08:54:24;;;;;;;2.77;2.10;;;3.60;99.90;;;;;;5072204;28;20482;-75
2021/01/24 08:57:05;;;;;;;2.53;2.00;;;3.50;99.90;;;;;;5078087;28;20525;-74
2021/01/24 08:59:31;;;;;;;3.00;2.37;;;3.40;99.90;;;;;;5091272;28;20529;-73
2021/01/24 09:01:58;;;;;;;2.93;2.07;;;3.30;99.90;;;;;;5092045;28;21169;-73
2021/01/24 09:04:27;;;;;;;3.60;2.20;;;3.30;99.90;;;;;;5085585;28;20561;-74
2021/01/24 09:07:07;;;;;;;3.60;2.47;;;3.20;99.90;;;;;;5079306;28;20528;-74
2021/01/24 09:09:36;;;;;;;3.43;2.00;;;3.20;99.90;;;;;;5091236;28;20557;-75
2021/01/24 09:12:03;;;;;;;3.00;2.07;;;3.10;99.90;;;;;;5092187;28;20894;-75
2021/01/24 09:14:30;;;;;;;3.53;2.20;;;3.10;99.90;;;;;;5091789;28;20574;-74
2021/01/24 09:16:59;;;;;;;4.80;2.23;;;3.00;99.90;;;;;;5091995;28;20464;-70
2021/01/24 09:19:25;;;;;;;4.43;2.40;;;3.00;99.90;;;;;;5092376;28;20530;-73
2021/01/24 09:21:52;;;;;;;3.03;2.33;;;3.00;99.90;;;;;;5092397;28;20458;-74
2021/01/24 09:24:18;;;;;;;2.70;2.17;;;3.00;99.90;;;;;;5092314;28;20545;-74
2021/01/24 09:26:46;;;;;;;3.80;2.43;;;2.90;99.90;;;;;;5085807;28;20819;-72
2021/01/24 09:29:13;;;;;;;2.90;2.03;;;2.80;99.90;;;;;;5092755;28;20433;-70
2021/01/24 09:31:39;;;;;;;5.23;3.07;;;2.70;99.90;;;;;;5081710;28;20447;-71
2021/01/24 09:34:06;;;;;;;3.30;2.97;;;2.60;99.90;;;;;;5101749;28;20493;-71
2021/01/24 09:36:32;;;;;;;4.77;2.50;;;2.60;99.90;;;;;;5083296;28;20863;-72
2021/01/24 09:38:59;;;;;;;4.37;2.47;;;2.70;99.90;;;;;;5092308;28;20562;-70
2021/01/24 09:41:25;;;;;;;3.40;2.40;;;2.70;99.90;;;;;;5091972;28;20536;-71
2021/01/24 09:43:52;;;;;;;3.60;2.30;;;2.70;99.90;;;;;;5072167;28;20558;-72
2021/01/24 09:46:19;;;;;;;4.83;2.50;;;2.70;99.90;;;;;;5071763;28;20538;-73
2021/01/24 09:48:45;;;;;;;3.77;2.80;;;2.70;99.90;;;;;;5071720;28;20538;-72
2021/01/24 09:51:12;;;;;;;3.90;2.80;;;2.70;99.90;;;;;;5083451;28;20968;-71
2021/01/24 09:53:38;;;;;;;4.33;3.10;;;2.80;99.90;;;;;;5090937;28;20474;-72
2021/01/24 09:56:05;;;;;;;3.50;2.60;;;3.00;99.90;;;;;;5094002;28;20437;-73
2021/01/24 09:58:32;;;;;;;4.37;2.90;;;3.00;99.90;;;;;;5085395;28;20534;-71
2021/01/24 10:00:59;;;;;;;5.00;2.63;;;3.00;99.90;;;;;;5079176;28;20437;-72
2021/01/24 10:03:26;;;;;;;6.63;3.20;;;2.90;99.90;;;;;;5090041;27;21110;-73
2021/01/24 10:05:52;;;;;;;4.47;3.63;;;3.00;99.90;;;;;;5071349;28;20529;-75
2021/01/24 10:08:19;;;;;;;4.97;3.40;;;3.10;99.90;;;;;;5083315;28;20454;-73
2021/01/24 10:10:46;;;;;;;3.53;2.40;;;3.10;99.90;;;;;;5073558;28;21037;-74
2021/01/24 10:13:13;;;;;;;3.67;3.30;;;3.10;99.90;;;;;;5072766;28;20466;-74
2021/01/24 10:15:40;;;;;;;4.83;2.80;;;3.10;99.90;;;;;;5068290;28;20487;-73
2021/01/24 10:18:06;;;;;;;4.13;3.03;;;3.00;99.90;;;;;;5069557;28;20538;-74
2021/01/24 10:20:33;;;;;;;5.70;3.80;;;3.00;99.90;;;;;;5068838;28;20466;-72
2021/01/24 10:22:59;;;;;;;4.53;3.20;;;3.10;99.90;;;;;;5069603;28;20470;-74
2021/01/24 10:25:26;;;;;;;5.10;3.70;;;3.10;99.90;;;;;;5076434;28;20533;-73
2021/01/24 10:27:53;;;;;;;3.00;2.43;;;3.10;99.90;;;;;;5075455;28;20459;-72
2021/01/24 10:30:22;;;;;;;4.30;3.17;;;3.00;99.90;;;;;;5072420;28;20654;-72
2021/01/24 10:32:49;;;;;;;3.60;2.63;;;3.00;99.90;;;;;;5072368;28;20485;-72
2021/01/24 10:35:15;;;;;;;4.53;3.20;;;3.10;99.90;;;;;;5068418;28;20526;-74
2021/01/24 10:37:42;;;;;;;6.07;3.60;;;3.10;99.90;;;;;;5080417;28;20512;-72
2021/01/24 10:40:09;;;;;;;3.33;2.80;;;3.30;99.90;;;;;;5081106;28;20480;-73
2021/01/24 10:42:38;;;;;;;3.23;2.87;;;3.60;99.90;;;;;;5064570;28;20558;-74
2021/01/24 10:45:06;;;;;;;2.77;1.90;;;3.70;99.90;;;;;;5087574;28;20449;-74
2021/01/24 10:47:32;;;;;;;4.37;2.20;;;3.90;99.90;;;;;;5068980;28;20856;-73
2021/01/24 10:49:59;;;;;;;3.67;2.20;;;4.10;99.90;;;;;;5067989;28;21159;-73
2021/01/24 10:52:25;;;;;;;3.10;2.10;;;4.20;99.90;;;;;;5069277;28;21269;-73
2021/01/24 10:54:53;;;;;;;2.70;1.87;;;4.40;99.90;;;;;;5069102;28;20939;-72
2021/01/24 10:57:19;;;;;;;3.30;2.53;;;4.40;99.90;;;;;;5068020;28;20853;-73
2021/01/24 10:59:45;;;;;;;3.20;2.10;;;4.50;99.90;;;;;;5073576;28;20517;-73
2021/01/24 11:02:13;;;;;;;2.10;1.20;;;4.40;99.90;;;;;;5068247;28;21040;-72
2021/01/24 11:04:39;;;;;;;5.40;2.10;;;4.30;99.90;;;;;;5081871;28;20513;-73
2021/01/24 11:07:05;;;;;;;5.27;2.00;;;4.30;99.90;;;;;;5046756;22;20920;-73
2021/01/24 11:09:32;;;;;;;2.67;1.73;;;4.50;99.90;;;;;;5043909;28;20935;-74
2021/01/24 11:12:00;;;;;;;3.30;1.50;;;4.70;99.90;;;;;;5045724;28;20909;-71
2021/01/24 11:14:26;;;;;;;1.97;1.43;;;4.80;99.90;;;;;;5047095;28;20484;-72
2021/01/24 11:16:52;;;;;;;2.70;1.90;;;4.70;99.90;;;;;;5047007;28;20535;-75
2021/01/24 11:19:19;;;;;;;3.23;2.40;;;4.50;99.90;;;;;;5045645;28;20528;-75
2021/01/24 11:21:45;;;;;;;3.50;2.00;;;4.50;99.90;;;;;;5046107;28;20459;-75
2021/01/24 11:24:12;;;;;;;2.63;2.10;;;4.50;99.90;;;;;;5047491;28;20546;-76
2021/01/24 11:26:38;;;;;;;2.40;1.90;;;4.40;99.90;;;;;;5046311;28;20444;-75
2021/01/24 11:29:06;;;;;;;3.63;1.90;;;4.50;99.90;;;;;;5047452;28;20509;-75
2021/01/24 11:31:32;;;;;;;2.90;1.60;;;4.40;99.90;;;;;;5047678;28;20454;-75
2021/01/24 11:33:59;;;;;;;3.37;1.80;;;4.40;99.90;;;;;;5047899;28;20982;-75
2021/01/24 11:36:26;;;;;;;2.50;1.50;;;4.40;99.90;;;;;;5047008;28;20950;-76
2021/01/24 11:38:52;;;;;;;3.03;1.93;;;4.40;99.90;;;;;;5041441;28;20458;-75
2021/01/24 11:41:19;;;;;;;2.07;1.60;;;4.50;99.90;;;;;;5045210;28;20444;-76
2021/01/24 11:43:45;;;;;;;2.63;1.77;;;4.50;99.90;;;;;;5047518;28;20503;-77
2021/01/24 11:46:12;;;;;;;3.20;1.90;;;4.30;99.90;;;;;;5045918;28;20530;-76
2021/01/24 11:48:39;;;;;;;3.10;1.80;;;4.30;99.90;;;;;;5033195;28;21294;-75
2021/01/24 11:51:06;;;;;;;4.77;1.90;;;4.30;99.90;;;;;;5044954;28;20665;-76
2021/01/24 11:53:34;;;;;;;2.63;1.70;;;4.20;99.90;;;;;;5046726;28;20550;-75
2021/01/24 11:56:00;;;;;;;2.93;1.70;;;4.20;99.90;;;;;;5039239;28;20513;-75
2021/01/24 11:58:27;;;;;;;2.17;1.60;;;4.30;99.90;;;;;;5046705;28;20543;-75
2021/01/24 12:00:54;;;;;;;2.90;1.43;;;4.20;99.90;;;;;;5046164;28;20447;-75
2021/01/24 12:03:21;;;;;;;3.37;2.17;;;4.20;99.90;;;;;;5047538;28;20585;-75
2021/01/24 12:05:48;;;;;;;3.83;1.77;;;4.30;99.90;;;;;;5046072;28;20483;-75
2021/01/24 12:08:14;;;;;;;3.63;1.87;;;4.20;99.90;;;;;;5046110;28;20531;-74
2021/01/24 12:10:42;;;;;;;2.40;1.53;;;4.20;99.90;;;;;;5043774;28;20487;-75
2021/01/24 12:13:08;;;;;;;2.30;1.77;;;4.20;99.90;;;;;;5041743;28;20663;-76
2021/01/24 12:15:35;;;;;;;3.80;2.60;;;4.10;99.90;;;;;;5038573;28;20564;-76
2021/01/24 12:18:01;;;;;;;4.10;2.03;;;4.10;99.90;;;;;;5045371;28;20540;-75
2021/01/24 12:20:28;;;;;;;3.10;1.90;;;4.00;99.90;;;;;;5040601;28;20455;-75
2021/01/24 12:22:55;;;;;;;2.33;1.73;;;4.10;99.90;;;;;;5049067;28;20506;-75
2021/01/24 12:25:21;;;;;;;3.33;2.10;;;4.00;99.90;;;;;;5047655;28;20518;-74
2021/01/24 12:27:47;;;;;;;3.80;2.53;;;4.00;99.90;;;;;;5048493;28;20495;-75
2021/01/24 12:30:15;;;;;;;3.13;2.40;;;3.90;99.90;;;;;;5046741;28;20811;-75
2021/01/24 12:32:41;;;;;;;2.27;1.37;;;3.90;99.90;;;;;;5050527;28;20546;-73
2021/01/24 12:35:09;;;;;;;2.03;1.40;;;3.90;99.90;;;;;;5048311;28;20575;-74
2021/01/24 12:37:36;;;;;;;2.37;1.40;;;3.80;99.90;;;;;;5049287;28;20535;-76
2021/01/24 12:40:03;;;;;;;3.43;1.80;;;3.80;99.90;;;;;;5050033;28;20553;-76
2021/01/24 12:42:30;;;;;;;2.93;1.90;;;3.90;99.90;;;;;;5046825;28;20547;-75
2021/01/24 12:44:56;;;;;;;2.63;2.10;;;3.80;99.90;;;;;;5050540;28;20793;-75
2021/01/24 12:47:22;;;;;;;2.70;1.90;;;3.80;99.90;;;;;;5042487;28;20448;-74
2021/01/24 12:49:49;;;;;;;3.67;2.27;;;3.90;99.90;;;;;;5051155;28;20515;-74
2021/01/24 12:52:15;;;;;;;3.83;1.73;;;3.90;99.90;;;;;;5051169;28;20452;-74
2021/01/24 12:54:42;;;;;;;4.40;2.00;;;4.00;99.90;;;;;;5040996;28;20523;-74
2021/01/24 12:57:09;;;;;;;5.40;1.90;;;4.00;99.90;;;;;;5041547;28;21302;-74
2021/01/24 12:59:35;;;;;;;3.23;2.10;;;4.00;99.90;;;;;;5046164;28;20531;-74
2021/01/24 13:02:04;;;;;;;2.33;1.70;;;4.10;99.90;;;;;;5045538;28;20480;-70